createdAt,value
2022-08-23T00:01:51.976Z,100464.19
2022-08-23T00:04:36.946Z,100465.03
2022-08-23T00:07:07.418Z,100456.25
2022-08-23T00:09:34.810Z,100470.00
2022-08-23T00:12:16.197Z,100465.03
2022-08-23T00:14:54.771Z,100456.88
2022-08-23T00:17:34.065Z,100455.94
2022-08-23T00:20:04.669Z,100463.03
2022-08-23T00:22:31.361Z,100457.31
2022-08-23T00:24:58.025Z,100452.66
2022-08-23T00:27:24.746Z,100452.03
2022-08-23T00:29:54.636Z,100470.00
2022-08-23T00:32:30.780Z,100468.41
2022-08-23T00:34:59.660Z,100453.91
2022-08-23T00:37:28.628Z,100468.53
2022-08-23T00:39:55.640Z,100463.66
2022-08-23T00:43:11.410Z,100478.69
2022-08-23T00:46:21.539Z,100474.56
2022-08-23T00:48:48.771Z,100466.84
2022-08-23T00:51:46.902Z,100463.66
2022-08-23T00:54:22.513Z,100460.81
2022-08-23T00:56:51.006Z,100463.75
2022-08-23T00:59:18.386Z,100447.56
2022-08-23T01:01:45.466Z,100444.63
2022-08-23T01:04:13.653Z,100457.19
2022-08-23T01:07:07.716Z,100432.84
2022-08-23T01:09:34.462Z,100450.31
2022-08-23T01:12:07.065Z,100467.47
2022-08-23T01:14:40.661Z,100448.63
2022-08-23T01:17:11.045Z,100456.16
2022-08-23T01:19:41.377Z,100464.22
2022-08-23T01:22:23.846Z,100472.34
2022-08-23T01:25:05.879Z,100468.81
2022-08-23T01:27:33.762Z,100467.53
2022-08-23T01:30:00.437Z,100458.22
2022-08-23T01:32:27.409Z,100478.09
2022-08-23T01:34:54.172Z,100469.63
2022-08-23T01:37:22.130Z,100463.69
2022-08-23T01:39:48.886Z,100482.66
2022-08-23T01:42:15.747Z,100475.53
2022-08-23T01:44:42.566Z,100458.59
2022-08-23T01:47:09.449Z,100472.91
2022-08-23T01:49:36.529Z,100459.91
2022-08-23T01:52:04.037Z,100465.31
2022-08-23T01:54:30.730Z,100454.00
2022-08-23T01:56:57.440Z,100450.47
2022-08-23T01:59:24.407Z,100463.25
2022-08-23T02:01:51.845Z,100463.94
2022-08-23T02:04:18.653Z,100470.84
2022-08-23T02:06:45.825Z,100456.00
2022-08-23T02:09:17.238Z,100458.31
2022-08-23T02:11:45.760Z,100466.72
2022-08-23T02:14:15.284Z,100474.25
2022-08-23T02:16:59.946Z,100456.31
2022-08-23T02:19:30.179Z,100466.56
2022-08-23T02:21:56.887Z,100469.97
2022-08-23T02:24:25.431Z,100474.44
2022-08-23T02:26:56.792Z,100471.06
2022-08-23T02:29:25.475Z,100456.66
2022-08-23T02:31:52.589Z,100450.75
2022-08-23T02:34:20.348Z,100465.34
2022-08-23T02:36:47.821Z,100467.88
2022-08-23T02:39:16.632Z,100465.44
2022-08-23T02:41:43.443Z,100452.88
2022-08-23T02:44:11.164Z,100450.00
2022-08-23T02:46:39.014Z,100449.28
2022-08-23T02:49:06.472Z,100446.19
2022-08-23T02:51:34.539Z,100433.69
2022-08-23T02:54:01.561Z,100444.41
2022-08-23T02:56:28.335Z,100445.56
2022-08-23T02:58:55.133Z,100443.53
2022-08-23T03:01:28.824Z,100437.72
2022-08-23T03:03:56.581Z,100453.50
2022-08-23T03:06:25.524Z,100455.94
2022-08-23T03:08:54.396Z,100434.97
2022-08-23T03:11:22.804Z,100457.22
2022-08-23T03:13:51.013Z,100463.78
2022-08-23T03:16:19.262Z,100455.31
2022-08-23T03:18:46.869Z,100462.41
2022-08-23T03:21:14.277Z,100473.19
2022-08-23T03:23:41.124Z,100462.34
2022-08-23T03:26:10.742Z,100437.38
2022-08-23T03:28:40.034Z,100464.31
2022-08-23T03:31:08.454Z,100445.56
2022-08-23T03:33:35.917Z,100452.75
2022-08-23T03:36:06.594Z,100454.44
2022-08-23T03:38:34.375Z,100459.53
2022-08-23T03:41:01.576Z,100445.69
2022-08-23T03:43:28.991Z,100460.91
2022-08-23T03:45:56.133Z,100462.94
2022-08-23T03:48:22.853Z,100459.53
2022-08-23T03:50:49.496Z,100456.25
2022-08-23T03:53:16.797Z,100459.03
2022-08-23T03:55:44.385Z,100469.69
2022-08-23T03:58:12.033Z,100443.69
2022-08-23T04:00:39.174Z,100444.06
2022-08-23T04:03:06.030Z,100438.88
2022-08-23T04:05:32.846Z,100431.69
2022-08-23T04:08:01.982Z,100444.19
2022-08-23T04:10:28.943Z,100442.81
2022-08-23T04:12:55.639Z,100425.28
2022-08-23T04:15:23.414Z,100444.31
2022-08-23T04:17:50.348Z,100431.59
2022-08-23T04:20:17.874Z,100436.59
2022-08-23T04:22:45.948Z,100424.50
2022-08-23T04:25:34.432Z,100438.81
2022-08-23T04:28:00.767Z,100412.75
2022-08-23T04:30:28.001Z,100431.59
2022-08-23T04:32:55.473Z,100437.06
2022-08-23T04:35:22.596Z,100435.78
2022-08-23T04:37:49.365Z,100429.56
2022-08-23T04:40:34.788Z,100443.19
2022-08-23T04:43:02.486Z,100444.38
2022-08-23T04:45:32.606Z,100451.13
2022-08-23T04:47:59.646Z,100457.03
2022-08-23T04:50:26.733Z,100452.41
2022-08-23T04:52:53.530Z,100451.00
2022-08-23T04:55:20.254Z,100450.47
2022-08-23T04:57:46.946Z,100442.56
2022-08-23T05:00:14.649Z,100451.00
2022-08-23T05:02:41.489Z,100454.50
2022-08-23T05:05:11.173Z,100454.81
2022-08-23T05:07:42.825Z,100454.38
2022-08-23T05:10:13.409Z,100444.19
2022-08-23T05:12:40.861Z,100458.50
2022-08-23T05:15:09.570Z,100449.09
2022-08-23T05:17:37.304Z,100452.00
2022-08-23T05:20:08.453Z,100455.41
2022-08-23T05:22:36.814Z,100451.09
2022-08-23T05:25:04.398Z,100448.66
2022-08-23T05:27:31.334Z,100450.66
2022-08-23T05:29:58.258Z,100469.97
2022-08-23T05:32:25.446Z,100462.56
2022-08-23T05:34:52.090Z,100454.50
2022-08-23T05:37:18.835Z,100462.88
2022-08-23T05:39:45.749Z,100455.47
2022-08-23T05:42:16.084Z,100480.34
2022-08-23T05:44:44.613Z,100477.69
2022-08-23T05:47:17.601Z,100462.50
2022-08-23T05:49:53.037Z,100456.25
2022-08-23T05:52:19.881Z,100455.91
2022-08-23T05:54:46.596Z,100458.06
2022-08-23T05:57:13.296Z,100472.44
2022-08-23T05:59:42.040Z,100438.25
2022-08-23T06:02:09.221Z,100455.50
2022-08-23T06:04:36.263Z,100472.00
2022-08-23T06:07:03.931Z,100476.75
2022-08-23T06:09:30.602Z,100469.50
2022-08-23T06:11:58.785Z,100466.84
2022-08-23T06:14:25.573Z,100468.84
2022-08-23T06:16:56.020Z,100478.47
2022-08-23T06:19:24.292Z,100482.28
2022-08-23T06:21:52.554Z,100464.38
2022-08-23T06:24:20.089Z,100459.97
2022-08-23T06:26:47.039Z,100474.78
2022-08-23T06:29:16.991Z,100471.69
2022-08-23T06:31:47.205Z,100479.00
2022-08-23T06:34:27.888Z,100480.81
2022-08-23T06:36:57.282Z,100467.13
2022-08-23T06:39:26.152Z,100456.22
2022-08-23T06:41:53.474Z,100475.88
2022-08-23T06:44:20.466Z,100465.66
2022-08-23T06:46:48.900Z,100477.16
2022-08-23T06:49:16.720Z,100463.50
2022-08-23T06:51:49.418Z,100459.25
2022-08-23T06:54:19.652Z,100465.31
2022-08-23T06:56:46.871Z,100433.25
2022-08-23T06:59:14.653Z,100465.75
2022-08-23T07:01:49.171Z,100472.88
2022-08-23T07:04:19.706Z,100471.44
2022-08-23T07:06:46.878Z,100463.94
2022-08-23T07:09:14.464Z,100463.63
2022-08-23T07:11:41.730Z,100485.28
2022-08-23T07:14:15.141Z,100478.59
2022-08-23T07:16:53.511Z,100487.03
2022-08-23T07:19:23.054Z,100482.94
2022-08-23T07:21:56.133Z,100483.63
2022-08-23T07:24:23.072Z,100485.63
2022-08-23T07:26:52.306Z,100470.41
2022-08-23T07:29:20.883Z,100477.91
2022-08-23T07:31:50.878Z,100476.94
2022-08-23T07:34:18.440Z,100468.09
2022-08-23T07:36:47.905Z,100478.38
2022-08-23T07:39:15.869Z,100460.84
2022-08-23T07:41:43.314Z,100473.03
2022-08-23T07:44:11.693Z,100468.34
2022-08-23T07:46:43.008Z,100484.75
2022-08-23T07:49:11.809Z,100482.78
2022-08-23T07:51:42.177Z,100487.84
2022-08-23T07:54:10.453Z,100454.00
2022-08-23T07:56:37.826Z,100477.59
2022-08-23T07:59:05.988Z,100476.50
2022-08-23T08:01:33.716Z,100473.59
2022-08-23T08:04:03.654Z,100479.19
2022-08-23T08:06:35.597Z,100478.19
2022-08-23T08:09:04.403Z,100480.16
2022-08-23T08:11:35.133Z,100479.28
2022-08-23T08:14:06.646Z,100483.31
2022-08-23T08:16:36.534Z,100478.81
2022-08-23T08:19:07.855Z,100462.72
2022-08-23T08:21:35.586Z,100436.19
2022-08-23T08:24:03.118Z,100442.06
2022-08-23T08:26:29.897Z,100444.09
2022-08-23T08:28:56.612Z,100468.66
2022-08-23T08:31:24.570Z,100467.00
2022-08-23T08:33:51.606Z,100494.06
2022-08-23T08:36:39.936Z,100499.97
2022-08-23T08:39:10.670Z,100501.53
2022-08-23T08:42:05.248Z,100519.59
2022-08-23T08:44:47.242Z,100502.63
2022-08-23T08:47:23.184Z,100505.34
2022-08-23T08:49:58.674Z,100505.88
2022-08-23T08:52:32.062Z,100488.66
2022-08-23T08:55:25.117Z,100512.56
2022-08-23T08:57:55.051Z,100497.44
2022-08-23T09:00:26.913Z,100502.56
2022-08-23T09:02:55.750Z,100500.41
2022-08-23T09:05:27.784Z,100496.75
2022-08-23T09:08:09.816Z,100504.56
2022-08-23T09:10:45.554Z,100508.25
2022-08-23T09:13:46.277Z,100496.91
2022-08-23T09:16:34.551Z,100507.59
2022-08-23T09:19:08.831Z,100486.81
2022-08-23T09:21:49.675Z,100487.25
2022-08-23T09:24:19.720Z,100468.31
2022-08-23T09:26:57.754Z,100463.34
2022-08-23T09:29:31.248Z,100445.03
2022-08-23T09:32:04.365Z,100464.97
2022-08-23T09:34:38.257Z,100469.66
2022-08-23T09:37:09.878Z,100477.50
2022-08-23T09:39:55.471Z,100474.81
2022-08-23T09:42:42.524Z,100481.66
2022-08-23T09:45:35.151Z,100459.16
2022-08-23T09:48:03.141Z,100463.00
2022-08-23T09:50:42.338Z,100441.69
2022-08-23T09:53:11.990Z,100480.47
2022-08-23T09:55:48.842Z,100470.69
2022-08-23T09:58:53.731Z,100477.88
2022-08-23T10:01:28.870Z,100473.75
2022-08-23T10:04:17.808Z,100474.66
2022-08-23T10:06:46.483Z,100482.94
2022-08-23T10:09:42.583Z,100458.28
2022-08-23T10:12:09.330Z,100433.22
2022-08-23T10:14:37.029Z,100473.38
2022-08-23T10:17:19.040Z,100471.63
2022-08-23T10:20:15.125Z,100448.69
2022-08-23T10:22:59.265Z,100455.63
2022-08-23T10:25:59.035Z,100492.94
2022-08-23T10:29:25.926Z,100490.34
2022-08-23T10:32:06.925Z,100483.25
2022-08-23T10:34:34.163Z,100479.00
2022-08-23T10:37:15.959Z,100477.94
2022-08-23T10:40:03.976Z,100472.75
2022-08-23T10:43:07.658Z,100490.09
2022-08-23T10:45:39.289Z,100488.19
2022-08-23T10:48:37.165Z,100488.91
2022-08-23T10:51:31.616Z,100490.38
2022-08-23T10:54:07.843Z,100484.78
2022-08-23T10:56:51.016Z,100493.56
2022-08-23T10:59:25.629Z,100490.09
2022-08-23T11:02:04.454Z,100468.41
2022-08-23T11:04:34.822Z,100472.59
2022-08-23T11:07:14.473Z,100482.13
2022-08-23T11:09:52.397Z,100493.13
2022-08-23T11:12:21.739Z,100456.59
2022-08-23T11:15:02.586Z,100469.47
2022-08-23T11:17:52.206Z,100484.75
2022-08-23T11:20:49.911Z,100516.47
2022-08-23T11:23:30.679Z,100503.53
2022-08-23T11:25:57.532Z,100482.06
2022-08-23T11:28:24.181Z,100505.88
2022-08-23T11:30:57.811Z,100472.50
2022-08-23T11:33:42.454Z,100507.88
2022-08-23T11:36:09.201Z,100511.34
2022-08-23T11:38:47.791Z,100498.16
2022-08-23T11:41:20.646Z,100500.09
2022-08-23T11:44:04.959Z,100507.34
2022-08-23T11:46:36.071Z,100499.47
2022-08-23T11:49:20.864Z,100505.16
2022-08-23T11:52:12.086Z,100505.69
2022-08-23T11:54:54.518Z,100507.31
2022-08-23T11:57:48.586Z,100511.34
2022-08-23T12:00:29.155Z,100509.66
2022-08-23T12:03:22.088Z,100494.06
2022-08-23T12:05:52.080Z,100501.78
2022-08-23T12:08:23.142Z,100506.41
2022-08-23T12:10:51.332Z,100500.91
2022-08-23T12:13:21.067Z,100519.53
2022-08-23T12:16:16.585Z,100508.84
2022-08-23T12:18:53.536Z,100511.88
2022-08-23T12:21:47.734Z,100519.03
2022-08-23T12:24:32.343Z,100519.13
2022-08-23T12:27:26.847Z,100522.56
2022-08-23T12:30:04.242Z,100515.94
2022-08-23T12:32:54.614Z,100506.53
2022-08-23T12:35:33.682Z,100516.13
2022-08-23T12:38:24.572Z,100512.56
2022-08-23T12:40:54.876Z,100506.41
2022-08-23T12:43:27.897Z,100513.25
2022-08-23T12:45:57.981Z,100511.91
2022-08-23T12:48:33.461Z,100525.22
2022-08-23T12:51:08.093Z,100528.78
2022-08-23T12:53:41.466Z,100526.47
2022-08-23T12:56:31.747Z,100534.34
2022-08-23T12:59:05.071Z,100539.88
2022-08-23T13:01:37.276Z,100534.66
2022-08-23T13:04:11.040Z,100529.50
2022-08-23T13:06:45.385Z,100528.63
2022-08-23T13:09:22.262Z,100540.78
2022-08-23T13:11:49.291Z,100534.44
2022-08-23T13:14:25.389Z,100538.78
2022-08-23T13:16:52.771Z,100538.44
2022-08-23T13:19:30.809Z,100541.41
2022-08-23T13:22:22.530Z,100550.88
2022-08-23T13:25:29.333Z,100537.72
2022-08-23T13:28:19.599Z,100536.22
2022-08-23T13:31:02.279Z,100544.00
2022-08-23T13:33:29.446Z,100487.66
2022-08-23T13:36:21.367Z,100494.81
2022-08-23T13:38:48.944Z,100530.13
2022-08-23T13:41:38.445Z,100534.25
2022-08-23T13:44:08.649Z,100529.00
2022-08-23T13:46:45.261Z,100530.31
2022-08-23T13:49:20.247Z,100538.56
2022-08-23T13:52:18.365Z,100526.88
2022-08-23T13:54:46.075Z,100516.06
2022-08-23T13:57:20.169Z,100511.31
2022-08-23T13:59:53.622Z,100542.13
2022-08-23T14:02:22.598Z,100522.06
2022-08-23T14:04:49.438Z,100495.88
2022-08-23T14:07:16.732Z,100502.72
2022-08-23T14:09:44.190Z,100523.59
2022-08-23T14:12:21.771Z,100496.28
2022-08-23T14:14:49.184Z,100516.50
2022-08-23T14:17:17.136Z,100500.16
2022-08-23T14:22:34.478Z,100519.28
2022-08-23T14:25:01.285Z,100510.56
2022-08-23T14:27:28.161Z,100512.41
2022-08-23T14:29:55.060Z,100509.78
2022-08-23T14:32:21.969Z,100485.78
2022-08-23T14:34:49.361Z,100507.84
2022-08-23T14:40:04.293Z,100523.00
2022-08-23T14:42:31.939Z,100508.91
2022-08-23T14:44:58.651Z,100490.78
2022-08-23T14:47:25.618Z,100501.84
2022-08-23T14:49:54.064Z,100507.34
2022-08-23T14:52:21.600Z,100500.44
2022-08-23T14:54:49.553Z,100498.16
2022-08-23T14:57:16.772Z,100509.81
2022-08-23T14:59:43.809Z,100506.69
2022-08-23T15:02:13.587Z,100501.81
2022-08-23T15:04:41.796Z,100499.78
2022-08-23T15:07:23.748Z,100525.00
2022-08-23T15:09:54.534Z,100518.31
2022-08-23T15:15:21.949Z,100501.06
2022-08-23T15:17:55.101Z,100509.91
2022-08-23T15:20:23.353Z,100512.72
2022-08-23T15:22:55.065Z,100491.34
2022-08-23T15:25:25.448Z,100511.16
2022-08-23T15:27:52.450Z,100509.47
2022-08-23T15:30:19.251Z,100516.44
2022-08-23T15:32:52.647Z,100524.25
2022-08-23T15:35:24.770Z,100511.16
2022-08-23T15:37:53.662Z,100503.13
2022-08-23T15:40:21.114Z,100516.38
2022-08-23T15:42:47.889Z,100518.97
2022-08-23T15:45:15.530Z,100507.56
2022-08-23T15:47:54.352Z,100505.97
2022-08-23T15:50:25.316Z,100508.59
2022-08-23T15:52:52.533Z,100491.63
2022-08-23T15:55:20.105Z,100513.22
2022-08-23T15:57:53.483Z,100520.41
2022-08-23T16:00:23.222Z,100508.81
2022-08-23T16:03:18.437Z,100518.75
2022-08-23T16:05:39.399Z,100504.19
2022-08-23T16:08:07.745Z,100529.88
2022-08-23T16:10:35.400Z,100510.38
2022-08-23T16:13:03.672Z,100493.13
2022-08-23T16:15:30.570Z,100522.72
2022-08-23T16:17:57.469Z,100515.66
2022-08-23T16:20:24.346Z,100509.34
2022-08-23T16:22:51.051Z,100509.19
2022-08-23T16:25:17.934Z,100518.53
2022-08-23T16:27:44.677Z,100501.88
2022-08-23T16:30:13.089Z,100520.34
2022-08-23T16:32:40.064Z,100522.59
2022-08-23T16:35:07.770Z,100522.13
2022-08-23T16:37:36.218Z,100513.03
2022-08-23T16:40:05.930Z,100516.69
2022-08-23T16:42:32.707Z,100532.75
2022-08-23T16:44:59.419Z,100539.50
2022-08-23T16:47:26.467Z,100548.78
2022-08-23T16:49:53.408Z,100545.66
2022-08-23T16:52:20.585Z,100537.03
2022-08-23T16:54:55.442Z,100538.00
2022-08-23T16:57:22.288Z,100543.38
2022-08-23T16:59:49.834Z,100552.91
2022-08-23T17:02:37.212Z,100542.25
2022-08-23T17:05:07.478Z,100572.63
2022-08-23T17:07:34.369Z,100564.16
2022-08-23T17:10:01.221Z,100578.09
2022-08-23T17:12:28.814Z,100575.16
2022-08-23T17:14:57.514Z,100551.69
2022-08-23T17:17:24.679Z,100555.56
2022-08-23T17:19:51.589Z,100568.09
2022-08-23T17:22:18.557Z,100558.66
2022-08-23T17:24:45.268Z,100583.25
2022-08-23T17:27:19.120Z,100577.88
2022-08-23T17:29:46.415Z,100579.00
2022-08-23T17:32:13.317Z,100577.28
2022-08-23T17:34:39.953Z,100580.03
2022-08-23T17:37:18.845Z,100580.06
2022-08-23T17:39:45.760Z,100568.91
2022-08-23T17:42:13.330Z,100564.50
2022-08-23T17:44:40.638Z,100563.47
2022-08-23T17:47:12.295Z,100585.31
2022-08-23T17:49:39.006Z,100589.78
2022-08-23T17:52:06.309Z,100564.31
2022-08-23T17:54:33.441Z,100562.22
2022-08-23T17:57:00.889Z,100596.44
2022-08-23T17:59:27.756Z,100575.53
2022-08-23T18:01:54.557Z,100560.41
2022-08-23T18:04:21.388Z,100578.06
2022-08-23T18:06:48.259Z,100580.53
2022-08-23T18:09:15.743Z,100587.44
2022-08-23T18:11:42.550Z,100614.47
2022-08-23T18:14:09.875Z,100618.00
2022-08-23T18:16:36.909Z,100578.31
2022-08-23T18:19:07.270Z,100607.78
2022-08-23T18:21:39.947Z,100608.88
2022-08-23T18:24:07.739Z,100593.13
2022-08-23T18:26:54.725Z,100606.78
2022-08-23T18:29:22.139Z,100616.63
2022-08-23T18:31:49.071Z,100619.41
2022-08-23T18:34:17.019Z,100614.38
2022-08-23T18:36:44.949Z,100611.91
2022-08-23T18:39:14.382Z,100626.81
2022-08-23T18:41:42.009Z,100604.38
2022-08-23T18:44:10.074Z,100630.28
2022-08-23T18:46:39.325Z,100621.63
2022-08-23T18:49:07.341Z,100635.63
2022-08-23T18:51:34.150Z,100623.88
2022-08-23T18:54:00.839Z,100633.69
2022-08-23T18:56:27.987Z,100607.09
2022-08-23T18:58:54.669Z,100618.66
2022-08-23T19:01:27.581Z,100635.31
2022-08-23T19:03:55.424Z,100643.09
2022-08-23T19:06:22.741Z,100623.09
2022-08-23T19:08:49.975Z,100648.00
2022-08-23T19:11:16.700Z,100626.94
2022-08-23T19:13:43.483Z,100616.59
2022-08-23T19:16:15.583Z,100646.28
2022-08-23T19:18:45.119Z,100642.47
2022-08-23T19:21:14.080Z,100634.94
2022-08-23T19:23:41.402Z,100613.47
2022-08-23T19:26:17.908Z,100636.19
2022-08-23T19:28:44.556Z,100641.75
2022-08-23T19:31:11.678Z,100625.94
2022-08-23T19:33:38.609Z,100647.09
2022-08-23T19:36:05.867Z,100640.53
2022-08-23T19:38:33.486Z,100650.81
2022-08-23T19:41:02.371Z,100652.09
2022-08-23T19:43:29.438Z,100668.56
2022-08-23T19:45:58.635Z,100647.06
2022-08-23T19:48:25.454Z,100667.47
2022-08-23T19:50:52.400Z,100669.06
2022-08-23T19:53:19.255Z,100668.03
2022-08-23T19:55:46.041Z,100664.81
2022-08-23T19:58:14.528Z,100647.84
2022-08-23T20:00:42.984Z,100680.03
2022-08-23T20:03:10.059Z,100671.78
2022-08-23T20:05:36.945Z,100658.75
2022-08-23T20:08:04.060Z,100663.19
2022-08-23T20:10:30.762Z,100680.94
2022-08-23T20:12:57.526Z,100669.72
2022-08-23T20:15:24.371Z,100678.97
2022-08-23T20:17:54.877Z,100677.47
2022-08-23T20:20:21.661Z,100665.47
2022-08-23T20:23:06.819Z,100683.06
2022-08-23T20:25:33.734Z,100656.22
2022-08-23T20:28:00.703Z,100690.75
2022-08-23T20:30:27.408Z,100663.88
2022-08-23T20:32:57.292Z,100673.59
2022-08-23T20:35:24.342Z,100668.88
2022-08-23T20:37:52.083Z,100685.50
2022-08-23T20:40:19.905Z,100690.22
2022-08-23T20:42:46.962Z,100694.59
2022-08-23T20:45:13.671Z,100699.31
2022-08-23T20:47:41.336Z,100688.84
2022-08-23T20:50:08.551Z,100683.56
2022-08-23T20:52:35.303Z,100681.63
2022-08-23T20:55:02.729Z,100684.47
2022-08-23T20:57:37.311Z,100681.13
2022-08-23T21:00:07.287Z,100677.78
2022-08-23T21:02:34.135Z,100692.88
2022-08-23T21:05:01.179Z,100675.41
2022-08-23T21:07:31.671Z,100690.63
2022-08-23T21:09:58.498Z,100694.53
2022-08-23T21:12:25.214Z,100680.66
2022-08-23T21:14:52.106Z,100685.31
2022-08-23T21:17:18.769Z,100667.22
2022-08-23T21:19:45.506Z,100670.56
2022-08-23T21:22:12.143Z,100673.06
2022-08-23T21:24:39.546Z,100680.03
2022-08-23T21:27:06.512Z,100681.56
2022-08-23T21:29:36.383Z,100675.97
2022-08-23T21:32:03.568Z,100678.22
2022-08-23T21:34:33.347Z,100683.31
2022-08-23T21:37:00.222Z,100691.50
2022-08-23T21:39:26.990Z,100705.03
2022-08-23T21:41:57.965Z,100712.28
2022-08-23T21:44:25.859Z,100649.34
2022-08-23T21:46:52.876Z,100681.53
2022-08-23T21:49:21.092Z,100674.78
2022-08-23T21:51:49.174Z,100690.53
2022-08-23T21:54:17.941Z,100674.44
2022-08-23T21:56:46.188Z,100664.75
2022-08-23T21:59:17.951Z,100699.75
2022-08-23T22:01:45.853Z,100681.31
2022-08-23T22:04:14.666Z,100629.41
2022-08-23T22:06:44.105Z,100679.28
2022-08-23T22:09:13.702Z,100685.56
2022-08-23T22:11:42.989Z,100679.25
2022-08-23T22:14:18.431Z,100673.13
2022-08-23T22:16:45.341Z,100675.34
2022-08-23T22:19:15.173Z,100659.94
2022-08-23T22:21:46.052Z,100668.00
2022-08-23T22:24:13.612Z,100676.47
2022-08-23T22:26:55.481Z,100629.25
2022-08-23T22:29:24.819Z,100647.63
2022-08-23T22:31:51.746Z,100623.59
2022-08-23T22:34:18.719Z,100669.13
2022-08-23T22:36:48.152Z,100670.53
2022-08-23T22:39:19.499Z,100682.69
2022-08-23T22:41:46.197Z,100663.34
2022-08-23T22:44:15.273Z,100637.56
2022-08-23T22:46:44.277Z,100627.53
2022-08-23T22:49:10.989Z,100660.81
2022-08-23T22:51:38.166Z,100650.41
2022-08-23T22:54:09.926Z,100662.34
2022-08-23T22:56:46.058Z,100618.41
2022-08-23T22:59:15.302Z,100645.94
2022-08-23T23:01:47.687Z,100652.06
2022-08-23T23:04:19.668Z,100626.25
2022-08-23T23:06:52.787Z,100652.69
2022-08-23T23:09:19.651Z,100637.66
2022-08-23T23:11:48.854Z,100629.81
2022-08-23T23:14:17.593Z,100614.63
2022-08-23T23:16:50.948Z,100653.72
2022-08-23T23:19:39.084Z,100661.56
2022-08-23T23:22:07.781Z,100619.91
2022-08-23T23:24:37.819Z,100653.59
2022-08-23T23:27:08.532Z,100664.13
2022-08-23T23:29:35.754Z,100630.03
2022-08-23T23:32:02.983Z,100671.19
2022-08-23T23:34:29.815Z,100656.16
2022-08-23T23:36:59.939Z,100623.84
2022-08-23T23:39:27.935Z,100638.66
2022-08-23T23:41:58.145Z,100655.28
2022-08-23T23:44:31.447Z,100624.53
2022-08-23T23:46:59.620Z,100643.66
2022-08-23T23:49:32.440Z,100615.38
2022-08-23T23:52:03.713Z,100616.50
2022-08-23T23:54:37.547Z,100620.34
2022-08-23T23:57:06.503Z,100551.81
2022-08-23T23:59:35.313Z,100577.69
